sensor_id;sensor_type;location;lat;lon;timestamp;P1;durP1;ratioP1;P2;durP2;ratioP2
5475;SDS011;2760;50.000;9.194;2023-08-21T00:01:42;8.90;;;6.30;;
5475;SDS011;2760;50.000;9.194;2023-08-21T00:04:10;13.23;;;6.20;;
5475;SDS011;2760;50.000;9.194;2023-08-21T00:06:37;10.63;;;6.10;;
5475;SDS011;2760;50.000;9.194;2023-08-21T00:09:04;9.23;;;6.33;;
5475;SDS011;2760;50.000;9.194;2023-08-21T00:11:31;9.07;;;5.80;;
5475;SDS011;2760;50.000;9.194;2023-08-21T00:13:58;17.40;;;5.80;;
5475;SDS011;2760;50.000;9.194;2023-08-21T00:16:25;10.10;;;6.10;;
5475;SDS011;2760;50.000;9.194;2023-08-21T00:18:53;9.30;;;6.20;;
5475;SDS011;2760;50.000;9.194;2023-08-21T00:21:22;9.93;;;5.83;;
5475;SDS011;2760;50.000;9.194;2023-08-21T00:23:49;10.90;;;6.07;;
5475;SDS011;2760;50.000;9.194;2023-08-21T00:26:16;14.87;;;6.37;;
5475;SDS011;2760;50.000;9.194;2023-08-21T00:28:43;7.50;;;5.87;;
5475;SDS011;2760;50.000;9.194;2023-08-21T00:31:09;11.63;;;6.57;;
5475;SDS011;2760;50.000;9.194;2023-08-21T00:33:37;7.90;;;5.37;;
5475;SDS011;2760;50.000;9.194;2023-08-21T00:36:04;9.33;;;6.60;;
5475;SDS011;2760;50.000;9.194;2023-08-21T00:38:32;8.87;;;6.00;;
5475;SDS011;2760;50.000;9.194;2023-08-21T00:40:59;9.57;;;5.70;;
5475;SDS011;2760;50.000;9.194;2023-08-21T00:43:26;9.40;;;6.07;;
5475;SDS011;2760;50.000;9.194;2023-08-21T00:45:54;9.20;;;6.13;;
5475;SDS011;2760;50.000;9.194;2023-08-21T00:48:21;10.80;;;5.87;;
5475;SDS011;2760;50.000;9.194;2023-08-21T00:50:48;10.60;;;7.47;;
5475;SDS011;2760;50.000;9.194;2023-08-21T00:53:16;16.10;;;6.80;;
5475;SDS011;2760;50.000;9.194;2023-08-21T00:55:44;8.80;;;6.20;;
5475;SDS011;2760;50.000;9.194;2023-08-21T00:58:12;11.23;;;5.60;;
5475;SDS011;2760;50.000;9.194;2023-08-21T01:00:42;9.93;;;5.60;;
5475;SDS011;2760;50.000;9.194;2023-08-21T01:03:12;8.00;;;6.00;;
5475;SDS011;2760;50.000;9.194;2023-08-21T01:05:41;8.53;;;5.80;;
5475;SDS011;2760;50.000;9.194;2023-08-21T01:08:10;13.40;;;6.40;;
5475;SDS011;2760;50.000;9.194;2023-08-21T01:10:43;9.23;;;6.87;;
5475;SDS011;2760;50.000;9.194;2023-08-21T01:13:30;6.70;;;5.53;;
5475;SDS011;2760;50.000;9.194;2023-08-21T01:16:08;13.20;;;5.97;;
5475;SDS011;2760;50.000;9.194;2023-08-21T01:18:36;6.90;;;6.20;;
5475;SDS011;2760;50.000;9.194;2023-08-21T01:21:04;10.13;;;6.37;;
5475;SDS011;2760;50.000;9.194;2023-08-21T01:23:34;12.17;;;6.70;;
5475;SDS011;2760;50.000;9.194;2023-08-21T01:26:01;9.17;;;7.20;;
5475;SDS011;2760;50.000;9.194;2023-08-21T01:28:29;15.20;;;6.60;;
5475;SDS011;2760;50.000;9.194;2023-08-21T01:30:59;10.40;;;7.30;;
5475;SDS011;2760;50.000;9.194;2023-08-21T01:33:29;8.73;;;6.00;;
5475;SDS011;2760;50.000;9.194;2023-08-21T01:36:01;16.53;;;6.53;;
5475;SDS011;2760;50.000;9.194;2023-08-21T01:38:31;7.93;;;6.47;;
5475;SDS011;2760;50.000;9.194;2023-08-21T01:41:00;9.27;;;6.87;;
5475;SDS011;2760;50.000;9.194;2023-08-21T01:43:28;7.63;;;5.93;;
5475;SDS011;2760;50.000;9.194;2023-08-21T01:45:55;11.53;;;6.70;;
5475;SDS011;2760;50.000;9.194;2023-08-21T01:48:22;13.87;;;6.47;;
5475;SDS011;2760;50.000;9.194;2023-08-21T01:50:49;8.53;;;6.20;;
5475;SDS011;2760;50.000;9.194;2023-08-21T01:53:16;16.20;;;6.83;;
5475;SDS011;2760;50.000;9.194;2023-08-21T01:55:44;6.80;;;5.77;;
5475;SDS011;2760;50.000;9.194;2023-08-21T01:58:11;9.37;;;7.50;;
5475;SDS011;2760;50.000;9.194;2023-08-21T02:00:38;13.60;;;6.73;;
5475;SDS011;2760;50.000;9.194;2023-08-21T02:03:06;9.90;;;6.33;;
5475;SDS011;2760;50.000;9.194;2023-08-21T02:05:37;8.80;;;6.57;;
5475;SDS011;2760;50.000;9.194;2023-08-21T02:08:05;9.47;;;5.87;;
5475;SDS011;2760;50.000;9.194;2023-08-21T02:10:34;10.53;;;5.60;;
5475;SDS011;2760;50.000;9.194;2023-08-21T02:13:02;7.70;;;6.50;;
5475;SDS011;2760;50.000;9.194;2023-08-21T02:15:29;12.80;;;6.03;;
5475;SDS011;2760;50.000;9.194;2023-08-21T02:17:56;10.00;;;6.27;;
5475;SDS011;2760;50.000;9.194;2023-08-21T02:20:24;12.00;;;7.47;;
5475;SDS011;2760;50.000;9.194;2023-08-21T02:22:51;8.10;;;6.43;;
5475;SDS011;2760;50.000;9.194;2023-08-21T02:25:19;16.20;;;7.10;;
5475;SDS011;2760;50.000;9.194;2023-08-21T02:27:46;14.97;;;6.60;;
5475;SDS011;2760;50.000;9.194;2023-08-21T02:30:14;13.97;;;6.80;;
5475;SDS011;2760;50.000;9.194;2023-08-21T02:32:42;11.37;;;6.53;;
5475;SDS011;2760;50.000;9.194;2023-08-21T02:35:09;11.03;;;6.77;;
5475;SDS011;2760;50.000;9.194;2023-08-21T02:37:37;8.30;;;7.00;;
5475;SDS011;2760;50.000;9.194;2023-08-21T02:40:05;10.83;;;7.27;;
5475;SDS011;2760;50.000;9.194;2023-08-21T02:42:34;10.90;;;6.97;;
5475;SDS011;2760;50.000;9.194;2023-08-21T02:45:02;10.93;;;7.13;;
5475;SDS011;2760;50.000;9.194;2023-08-21T02:47:35;12.30;;;6.43;;
5475;SDS011;2760;50.000;9.194;2023-08-21T02:50:03;12.57;;;8.37;;
5475;SDS011;2760;50.000;9.194;2023-08-21T02:52:30;12.50;;;6.63;;
5475;SDS011;2760;50.000;9.194;2023-08-21T02:54:58;9.47;;;6.13;;
5475;SDS011;2760;50.000;9.194;2023-08-21T02:57:25;8.20;;;6.03;;
5475;SDS011;2760;50.000;9.194;2023-08-21T02:59:54;8.27;;;5.70;;
5475;SDS011;2760;50.000;9.194;2023-08-21T03:02:21;8.40;;;6.97;;
5475;SDS011;2760;50.000;9.194;2023-08-21T03:04:50;9.60;;;6.63;;
5475;SDS011;2760;50.000;9.194;2023-08-21T03:07:17;9.57;;;6.83;;
5475;SDS011;2760;50.000;9.194;2023-08-21T03:09:45;8.87;;;6.20;;
5475;SDS011;2760;50.000;9.194;2023-08-21T03:12:13;7.87;;;6.80;;
5475;SDS011;2760;50.000;9.194;2023-08-21T03:14:40;7.47;;;6.13;;
5475;SDS011;2760;50.000;9.194;2023-08-21T03:17:07;8.90;;;6.83;;
5475;SDS011;2760;50.000;9.194;2023-08-21T03:19:34;10.57;;;6.80;;
5475;SDS011;2760;50.000;9.194;2023-08-21T03:22:02;10.63;;;6.30;;
5475;SDS011;2760;50.000;9.194;2023-08-21T03:24:31;9.73;;;6.40;;
5475;SDS011;2760;50.000;9.194;2023-08-21T03:26:58;10.33;;;6.93;;
5475;SDS011;2760;50.000;9.194;2023-08-21T03:29:25;6.80;;;6.10;;
5475;SDS011;2760;50.000;9.194;2023-08-21T03:31:52;9.80;;;6.67;;
5475;SDS011;2760;50.000;9.194;2023-08-21T03:34:20;15.03;;;8.03;;
5475;SDS011;2760;50.000;9.194;2023-08-21T03:36:50;11.90;;;7.20;;
5475;SDS011;2760;50.000;9.194;2023-08-21T03:39:18;12.40;;;7.17;;
5475;SDS011;2760;50.000;9.194;2023-08-21T03:41:47;12.00;;;8.50;;
5475;SDS011;2760;50.000;9.194;2023-08-21T03:44:16;12.90;;;7.53;;
5475;SDS011;2760;50.000;9.194;2023-08-21T03:46:44;9.47;;;6.57;;
5475;SDS011;2760;50.000;9.194;2023-08-21T03:49:11;12.23;;;7.70;;
5475;SDS011;2760;50.000;9.194;2023-08-21T03:51:38;7.60;;;6.47;;
5475;SDS011;2760;50.000;9.194;2023-08-21T03:54:05;10.00;;;6.63;;
5475;SDS011;2760;50.000;9.194;2023-08-21T03:56:34;8.93;;;6.43;;
5475;SDS011;2760;50.000;9.194;2023-08-21T03:59:01;8.70;;;7.47;;
5475;SDS011;2760;50.000;9.194;2023-08-21T04:01:28;15.03;;;6.93;;
5475;SDS011;2760;50.000;9.194;2023-08-21T04:03:55;14.50;;;7.53;;
5475;SDS011;2760;50.000;9.194;2023-08-21T04:06:23;20.03;;;7.83;;
5475;SDS011;2760;50.000;9.194;2023-08-21T04:08:50;12.13;;;7.17;;
5475;SDS011;2760;50.000;9.194;2023-08-21T04:11:17;10.00;;;6.83;;
5475;SDS011;2760;50.000;9.194;2023-08-21T04:13:46;11.47;;;6.90;;
5475;SDS011;2760;50.000;9.194;2023-08-21T04:16:13;9.10;;;7.20;;
5475;SDS011;2760;50.000;9.194;2023-08-21T04:18:41;10.20;;;7.20;;
5475;SDS011;2760;50.000;9.194;2023-08-21T04:21:08;10.90;;;6.10;;
5475;SDS011;2760;50.000;9.194;2023-08-21T04:23:35;15.07;;;7.80;;
5475;SDS011;2760;50.000;9.194;2023-08-21T04:26:03;10.40;;;6.80;;
5475;SDS011;2760;50.000;9.194;2023-08-21T04:28:31;11.07;;;6.77;;
5475;SDS011;2760;50.000;9.194;2023-08-21T04:31:03;12.60;;;7.00;;
5475;SDS011;2760;50.000;9.194;2023-08-21T04:33:31;11.97;;;7.40;;
5475;SDS011;2760;50.000;9.194;2023-08-21T04:35:59;8.17;;;7.37;;
5475;SDS011;2760;50.000;9.194;2023-08-21T04:38:27;11.33;;;6.83;;
5475;SDS011;2760;50.000;9.194;2023-08-21T04:40:54;12.27;;;7.07;;
5475;SDS011;2760;50.000;9.194;2023-08-21T04:43:23;14.97;;;6.93;;
5475;SDS011;2760;50.000;9.194;2023-08-21T04:45:51;9.80;;;7.43;;
5475;SDS011;2760;50.000;9.194;2023-08-21T04:48:23;10.40;;;7.67;;
5475;SDS011;2760;50.000;9.194;2023-08-21T04:50:51;10.47;;;7.00;;
5475;SDS011;2760;50.000;9.194;2023-08-21T04:53:19;10.90;;;7.60;;
5475;SDS011;2760;50.000;9.194;2023-08-21T04:55:46;14.07;;;7.57;;
5475;SDS011;2760;50.000;9.194;2023-08-21T04:58:13;13.47;;;8.20;;
5475;SDS011;2760;50.000;9.194;2023-08-21T05:00:44;15.90;;;7.83;;
5475;SDS011;2760;50.000;9.194;2023-08-21T05:03:11;13.33;;;8.50;;
5475;SDS011;2760;50.000;9.194;2023-08-21T05:05:40;11.80;;;7.73;;
5475;SDS011;2760;50.000;9.194;2023-08-21T05:08:09;19.70;;;8.17;;
5475;SDS011;2760;50.000;9.194;2023-08-21T05:10:36;13.87;;;7.83;;
5475;SDS011;2760;50.000;9.194;2023-08-21T05:13:03;13.00;;;8.67;;
5475;SDS011;2760;50.000;9.194;2023-08-21T05:15:31;16.07;;;7.90;;
5475;SDS011;2760;50.000;9.194;2023-08-21T05:17:58;14.20;;;7.80;;
5475;SDS011;2760;50.000;9.194;2023-08-21T05:20:25;15.77;;;8.57;;
5475;SDS011;2760;50.000;9.194;2023-08-21T05:22:53;13.87;;;7.90;;
5475;SDS011;2760;50.000;9.194;2023-08-21T05:25:20;13.87;;;8.53;;
5475;SDS011;2760;50.000;9.194;2023-08-21T05:27:47;12.03;;;8.20;;
5475;SDS011;2760;50.000;9.194;2023-08-21T05:30:14;13.70;;;8.00;;
5475;SDS011;2760;50.000;9.194;2023-08-21T05:32:41;17.87;;;8.87;;
5475;SDS011;2760;50.000;9.194;2023-08-21T05:35:09;14.00;;;8.83;;
5475;SDS011;2760;50.000;9.194;2023-08-21T05:37:36;18.10;;;12.13;;
5475;SDS011;2760;50.000;9.194;2023-08-21T05:40:13;16.13;;;10.40;;
5475;SDS011;2760;50.000;9.194;2023-08-21T05:42:41;14.33;;;9.27;;
5475;SDS011;2760;50.000;9.194;2023-08-21T05:45:10;14.97;;;8.30;;
5475;SDS011;2760;50.000;9.194;2023-08-21T05:47:37;13.57;;;8.73;;
5475;SDS011;2760;50.000;9.194;2023-08-21T05:50:05;15.43;;;9.93;;
5475;SDS011;2760;50.000;9.194;2023-08-21T05:52:34;11.27;;;7.70;;
5475;SDS011;2760;50.000;9.194;2023-08-21T05:55:03;12.73;;;9.60;;
5475;SDS011;2760;50.000;9.194;2023-08-21T05:57:33;12.00;;;8.30;;
5475;SDS011;2760;50.000;9.194;2023-08-21T06:00:01;12.63;;;8.93;;
5475;SDS011;2760;50.000;9.194;2023-08-21T06:02:40;10.77;;;8.33;;
5475;SDS011;2760;50.000;9.194;2023-08-21T06:05:36;15.13;;;7.87;;
5475;SDS011;2760;50.000;9.194;2023-08-21T06:08:25;10.70;;;7.13;;
5475;SDS011;2760;50.000;9.194;2023-08-21T06:11:09;9.33;;;7.40;;
5475;SDS011;2760;50.000;9.194;2023-08-21T06:14:20;10.70;;;8.00;;
5475;SDS011;2760;50.000;9.194;2023-08-21T06:17:04;11.93;;;8.60;;
5475;SDS011;2760;50.000;9.194;2023-08-21T06:20:14;13.50;;;8.23;;
5475;SDS011;2760;50.000;9.194;2023-08-21T06:23:31;11.23;;;6.90;;
5475;SDS011;2760;50.000;9.194;2023-08-21T06:26:22;9.63;;;7.40;;
5475;SDS011;2760;50.000;9.194;2023-08-21T06:29:00;19.33;;;8.27;;
5475;SDS011;2760;50.000;9.194;2023-08-21T06:31:40;10.60;;;7.23;;
5475;SDS011;2760;50.000;9.194;2023-08-21T06:34:10;13.60;;;8.73;;
5475;SDS011;2760;50.000;9.194;2023-08-21T06:36:55;9.63;;;7.50;;
5475;SDS011;2760;50.000;9.194;2023-08-21T06:39:30;11.57;;;8.30;;
5475;SDS011;2760;50.000;9.194;2023-08-21T06:42:12;8.57;;;7.67;;
5475;SDS011;2760;50.000;9.194;2023-08-21T06:44:55;12.67;;;8.53;;
5475;SDS011;2760;50.000;9.194;2023-08-21T06:47:37;12.20;;;9.10;;
5475;SDS011;2760;50.000;9.194;2023-08-21T06:50:22;15.30;;;7.90;;
5475;SDS011;2760;50.000;9.194;2023-08-21T06:52:56;15.03;;;9.00;;
5475;SDS011;2760;50.000;9.194;2023-08-21T06:55:37;12.13;;;8.27;;
5475;SDS011;2760;50.000;9.194;2023-08-21T06:58:16;13.13;;;8.43;;
5475;SDS011;2760;50.000;9.194;2023-08-21T07:15:35;13.97;;;8.53;;
5475;SDS011;2760;50.000;9.194;2023-08-21T07:18:23;11.80;;;9.80;;
5475;SDS011;2760;50.000;9.194;2023-08-21T07:20:52;19.80;;;8.87;;
5475;SDS011;2760;50.000;9.194;2023-08-21T07:23:33;12.30;;;8.93;;
5475;SDS011;2760;50.000;9.194;2023-08-21T07:26:02;14.47;;;8.00;;
5475;SDS011;2760;50.000;9.194;2023-08-21T07:28:43;12.30;;;8.50;;
5475;SDS011;2760;50.000;9.194;2023-08-21T07:34:23;13.83;;;9.77;;
5475;SDS011;2760;50.000;9.194;2023-08-21T07:36:54;14.70;;;9.43;;
5475;SDS011;2760;50.000;9.194;2023-08-21T07:39:37;11.87;;;8.80;;
5475;SDS011;2760;50.000;9.194;2023-08-21T07:42:19;14.53;;;9.67;;
5475;SDS011;2760;50.000;9.194;2023-08-21T07:45:10;14.33;;;8.27;;
5475;SDS011;2760;50.000;9.194;2023-08-21T08:10:15;12.00;;;9.70;;
5475;SDS011;2760;50.000;9.194;2023-08-21T08:12:48;12.57;;;9.47;;
5475;SDS011;2760;50.000;9.194;2023-08-21T08:15:37;16.10;;;9.90;;
5475;SDS011;2760;50.000;9.194;2023-08-21T08:18:32;14.67;;;10.00;;
5475;SDS011;2760;50.000;9.194;2023-08-21T08:21:08;15.83;;;9.93;;
5475;SDS011;2760;50.000;9.194;2023-08-21T08:23:51;23.03;;;10.13;;
5475;SDS011;2760;50.000;9.194;2023-08-21T08:26:39;12.93;;;10.17;;
5475;SDS011;2760;50.000;9.194;2023-08-21T08:29:08;14.13;;;10.87;;
5475;SDS011;2760;50.000;9.194;2023-08-21T08:31:53;16.90;;;11.00;;
5475;SDS011;2760;50.000;9.194;2023-08-21T08:34:37;22.33;;;11.93;;
5475;SDS011;2760;50.000;9.194;2023-08-21T08:37:36;18.40;;;10.77;;
5475;SDS011;2760;50.000;9.194;2023-08-21T08:40:19;16.47;;;10.53;;
5475;SDS011;2760;50.000;9.194;2023-08-21T08:45:59;16.13;;;11.17;;
5475;SDS011;2760;50.000;9.194;2023-08-21T08:48:42;15.70;;;11.70;;
5475;SDS011;2760;50.000;9.194;2023-08-21T08:51:24;16.47;;;11.77;;
5475;SDS011;2760;50.000;9.194;2023-08-21T08:53:52;15.20;;;10.90;;
5475;SDS011;2760;50.000;9.194;2023-08-21T08:56:20;12.77;;;11.17;;
5475;SDS011;2760;50.000;9.194;2023-08-21T09:01:51;13.87;;;12.30;;
5475;SDS011;2760;50.000;9.194;2023-08-21T09:04:18;17.67;;;12.67;;
5475;SDS011;2760;50.000;9.194;2023-08-21T09:07:07;15.63;;;13.13;;
5475;SDS011;2760;50.000;9.194;2023-08-21T09:09:37;17.40;;;12.93;;
5475;SDS011;2760;50.000;9.194;2023-08-21T09:12:10;16.37;;;11.97;;
5475;SDS011;2760;50.000;9.194;2023-08-21T09:14:42;16.83;;;13.40;;
5475;SDS011;2760;50.000;9.194;2023-08-21T09:17:15;17.33;;;14.77;;
5475;SDS011;2760;50.000;9.194;2023-08-21T09:19:46;15.97;;;14.27;;
5475;SDS011;2760;50.000;9.194;2023-08-21T09:22:29;17.37;;;14.03;;
5475;SDS011;2760;50.000;9.194;2023-08-21T09:25:01;20.50;;;14.37;;
5475;SDS011;2760;50.000;9.194;2023-08-21T09:27:32;18.27;;;14.87;;
5475;SDS011;2760;50.000;9.194;2023-08-21T09:30:03;19.93;;;13.30;;
5475;SDS011;2760;50.000;9.194;2023-08-21T09:32:31;17.83;;;13.77;;
5475;SDS011;2760;50.000;9.194;2023-08-21T09:35:33;16.57;;;13.10;;
5475;SDS011;2760;50.000;9.194;2023-08-21T09:38:00;20.60;;;15.30;;
5475;SDS011;2760;50.000;9.194;2023-08-21T09:40:29;18.50;;;14.80;;
5475;SDS011;2760;50.000;9.194;2023-08-21T09:42:57;16.67;;;14.10;;
5475;SDS011;2760;50.000;9.194;2023-08-21T09:45:27;22.13;;;15.63;;
5475;SDS011;2760;50.000;9.194;2023-08-21T09:48:08;17.60;;;13.60;;
5475;SDS011;2760;50.000;9.194;2023-08-21T09:50:37;26.53;;;14.27;;
5475;SDS011;2760;50.000;9.194;2023-08-21T09:53:25;14.90;;;13.30;;
5475;SDS011;2760;50.000;9.194;2023-08-21T09:56:39;14.07;;;12.40;;
5475;SDS011;2760;50.000;9.194;2023-08-21T09:59:21;17.77;;;12.37;;
5475;SDS011;2760;50.000;9.194;2023-08-21T10:40:33;10.73;;;8.30;;
5475;SDS011;2760;50.000;9.194;2023-08-21T10:49:09;7.10;;;6.40;;
5475;SDS011;2760;50.000;9.194;2023-08-21T10:52:21;11.17;;;6.30;;
5475;SDS011;2760;50.000;9.194;2023-08-21T12:26:39;4.03;;;3.37;;
5475;SDS011;2760;50.000;9.194;2023-08-21T12:29:11;2.90;;;2.70;;
5475;SDS011;2760;50.000;9.194;2023-08-21T12:31:51;3.40;;;3.10;;
5475;SDS011;2760;50.000;9.194;2023-08-21T12:34:46;3.80;;;3.50;;
5475;SDS011;2760;50.000;9.194;2023-08-21T12:37:13;5.53;;;3.20;;
5475;SDS011;2760;50.000;9.194;2023-08-21T12:39:42;7.80;;;3.43;;
5475;SDS011;2760;50.000;9.194;2023-08-21T12:42:11;4.60;;;3.20;;
5475;SDS011;2760;50.000;9.194;2023-08-21T12:44:39;4.00;;;3.60;;
5475;SDS011;2760;50.000;9.194;2023-08-21T12:47:09;4.00;;;3.47;;
5475;SDS011;2760;50.000;9.194;2023-08-21T12:49:41;4.70;;;3.47;;
5475;SDS011;2760;50.000;9.194;2023-08-21T12:52:09;18.33;;;6.00;;
5475;SDS011;2760;50.000;9.194;2023-08-21T12:54:38;2.93;;;2.70;;
5475;SDS011;2760;50.000;9.194;2023-08-21T12:57:08;3.70;;;2.90;;
5475;SDS011;2760;50.000;9.194;2023-08-21T12:59:40;3.17;;;2.60;;
5475;SDS011;2760;50.000;9.194;2023-08-21T13:02:16;61.17;;;12.20;;
5475;SDS011;2760;50.000;9.194;2023-08-21T13:11:11;3.77;;;3.07;;
5475;SDS011;2760;50.000;9.194;2023-08-21T13:13:47;6.70;;;3.17;;
5475;SDS011;2760;50.000;9.194;2023-08-21T13:16:50;4.07;;;3.37;;
5475;SDS011;2760;50.000;9.194;2023-08-21T13:19:32;4.53;;;3.57;;
5475;SDS011;2760;50.000;9.194;2023-08-21T13:22:16;4.40;;;3.80;;
5475;SDS011;2760;50.000;9.194;2023-08-21T13:24:58;4.00;;;3.60;;
5475;SDS011;2760;50.000;9.194;2023-08-21T13:27:28;5.07;;;3.13;;
5475;SDS011;2760;50.000;9.194;2023-08-21T13:29:56;4.10;;;3.27;;
5475;SDS011;2760;50.000;9.194;2023-08-21T13:32:28;7.03;;;3.67;;
5475;SDS011;2760;50.000;9.194;2023-08-21T13:34:59;4.60;;;3.63;;
5475;SDS011;2760;50.000;9.194;2023-08-21T13:37:42;10.33;;;3.83;;
5475;SDS011;2760;50.000;9.194;2023-08-21T13:40:13;4.10;;;3.50;;
5475;SDS011;2760;50.000;9.194;2023-08-21T13:46:37;3.73;;;2.80;;
5475;SDS011;2760;50.000;9.194;2023-08-21T14:01:24;6.20;;;3.80;;
5475;SDS011;2760;50.000;9.194;2023-08-21T14:03:52;9.20;;;4.40;;
5475;SDS011;2760;50.000;9.194;2023-08-21T14:06:19;6.40;;;4.20;;
5475;SDS011;2760;50.000;9.194;2023-08-21T14:09:02;6.47;;;3.80;;
5475;SDS011;2760;50.000;9.194;2023-08-21T14:11:31;5.00;;;4.43;;
5475;SDS011;2760;50.000;9.194;2023-08-21T14:17:28;5.37;;;3.80;;
5475;SDS011;2760;50.000;9.194;2023-08-21T14:19:59;3.80;;;3.50;;
5475;SDS011;2760;50.000;9.194;2023-08-21T14:22:27;4.40;;;3.43;;
5475;SDS011;2760;50.000;9.194;2023-08-21T14:25:09;6.37;;;3.70;;
5475;SDS011;2760;50.000;9.194;2023-08-21T14:30:49;6.13;;;3.27;;
5475;SDS011;2760;50.000;9.194;2023-08-21T14:37:27;4.07;;;3.67;;
5475;SDS011;2760;50.000;9.194;2023-08-21T14:43:19;4.20;;;2.77;;
5475;SDS011;2760;50.000;9.194;2023-08-21T14:45:48;6.43;;;3.40;;
5475;SDS011;2760;50.000;9.194;2023-08-21T14:48:35;9.53;;;3.53;;
5475;SDS011;2760;50.000;9.194;2023-08-21T14:58:07;4.50;;;3.93;;
5475;SDS011;2760;50.000;9.194;2023-08-21T15:01:22;4.23;;;3.27;;
5475;SDS011;2760;50.000;9.194;2023-08-21T15:04:05;3.20;;;2.90;;
5475;SDS011;2760;50.000;9.194;2023-08-21T15:06:35;6.53;;;3.83;;
5475;SDS011;2760;50.000;9.194;2023-08-21T15:22:37;8.63;;;3.10;;
5475;SDS011;2760;50.000;9.194;2023-08-21T15:25:22;3.27;;;2.97;;
5475;SDS011;2760;50.000;9.194;2023-08-21T15:28:13;8.80;;;3.70;;
5475;SDS011;2760;50.000;9.194;2023-08-21T15:30:44;5.07;;;3.20;;
5475;SDS011;2760;50.000;9.194;2023-08-21T15:33:13;5.80;;;4.10;;
5475;SDS011;2760;50.000;9.194;2023-08-21T15:35:40;4.57;;;3.70;;
5475;SDS011;2760;50.000;9.194;2023-08-21T15:38:12;3.70;;;3.10;;
5475;SDS011;2760;50.000;9.194;2023-08-21T15:40:39;3.57;;;3.27;;
5475;SDS011;2760;50.000;9.194;2023-08-21T15:43:08;4.50;;;2.90;;
5475;SDS011;2760;50.000;9.194;2023-08-21T15:45:36;4.90;;;3.60;;
5475;SDS011;2760;50.000;9.194;2023-08-21T15:48:03;3.20;;;2.90;;
5475;SDS011;2760;50.000;9.194;2023-08-21T15:50:31;4.73;;;3.20;;
5475;SDS011;2760;50.000;9.194;2023-08-21T15:52:58;3.47;;;3.00;;
5475;SDS011;2760;50.000;9.194;2023-08-21T15:55:28;2.80;;;2.57;;
5475;SDS011;2760;50.000;9.194;2023-08-21T15:58:13;2.70;;;2.50;;
5475;SDS011;2760;50.000;9.194;2023-08-21T16:00:41;3.33;;;2.57;;
5475;SDS011;2760;50.000;9.194;2023-08-21T16:03:16;5.17;;;2.57;;
5475;SDS011;2760;50.000;9.194;2023-08-21T16:05:43;3.13;;;2.30;;
5475;SDS011;2760;50.000;9.194;2023-08-21T16:08:10;4.53;;;2.90;;
5475;SDS011;2760;50.000;9.194;2023-08-21T16:10:39;3.17;;;2.30;;
5475;SDS011;2760;50.000;9.194;2023-08-21T16:13:06;2.63;;;2.40;;
5475;SDS011;2760;50.000;9.194;2023-08-21T16:15:37;3.00;;;2.27;;
5475;SDS011;2760;50.000;9.194;2023-08-21T16:18:06;3.20;;;2.13;;
5475;SDS011;2760;50.000;9.194;2023-08-21T16:20:34;3.57;;;2.70;;
5475;SDS011;2760;50.000;9.194;2023-08-21T16:23:04;6.57;;;2.67;;
5475;SDS011;2760;50.000;9.194;2023-08-21T16:25:32;3.80;;;2.23;;
5475;SDS011;2760;50.000;9.194;2023-08-21T16:28:00;6.27;;;2.13;;
5475;SDS011;2760;50.000;9.194;2023-08-21T16:30:28;3.20;;;2.60;;
5475;SDS011;2760;50.000;9.194;2023-08-21T16:32:56;2.80;;;1.63;;
5475;SDS011;2760;50.000;9.194;2023-08-21T16:35:23;3.03;;;2.27;;
5475;SDS011;2760;50.000;9.194;2023-08-21T16:37:51;4.87;;;3.73;;
5475;SDS011;2760;50.000;9.194;2023-08-21T16:40:19;2.97;;;2.30;;
5475;SDS011;2760;50.000;9.194;2023-08-21T16:43:23;3.73;;;2.20;;
5475;SDS011;2760;50.000;9.194;2023-08-21T16:45:57;5.17;;;2.50;;
5475;SDS011;2760;50.000;9.194;2023-08-21T16:48:24;3.83;;;2.10;;
5475;SDS011;2760;50.000;9.194;2023-08-21T16:50:58;2.40;;;2.20;;
5475;SDS011;2760;50.000;9.194;2023-08-21T16:53:47;2.40;;;2.20;;
5475;SDS011;2760;50.000;9.194;2023-08-21T16:56:22;1.97;;;1.87;;
5475;SDS011;2760;50.000;9.194;2023-08-21T16:59:06;2.70;;;2.40;;
5475;SDS011;2760;50.000;9.194;2023-08-21T17:01:34;2.17;;;2.00;;
5475;SDS011;2760;50.000;9.194;2023-08-21T17:04:02;4.47;;;2.33;;
5475;SDS011;2760;50.000;9.194;2023-08-21T17:06:33;2.27;;;2.03;;
5475;SDS011;2760;50.000;9.194;2023-08-21T17:09:04;2.40;;;2.13;;
5475;SDS011;2760;50.000;9.194;2023-08-21T17:11:36;3.27;;;2.20;;
5475;SDS011;2760;50.000;9.194;2023-08-21T17:14:04;5.13;;;2.33;;
5475;SDS011;2760;50.000;9.194;2023-08-21T17:16:32;9.70;;;3.73;;
5475;SDS011;2760;50.000;9.194;2023-08-21T17:19:00;3.73;;;3.40;;
5475;SDS011;2760;50.000;9.194;2023-08-21T17:21:28;4.50;;;2.70;;
5475;SDS011;2760;50.000;9.194;2023-08-21T17:23:56;3.30;;;2.53;;
5475;SDS011;2760;50.000;9.194;2023-08-21T17:26:26;2.70;;;2.10;;
5475;SDS011;2760;50.000;9.194;2023-08-21T17:28:54;3.53;;;3.23;;
5475;SDS011;2760;50.000;9.194;2023-08-21T17:31:21;6.23;;;4.17;;
5475;SDS011;2760;50.000;9.194;2023-08-21T17:33:50;2.63;;;2.43;;
5475;SDS011;2760;50.000;9.194;2023-08-21T17:36:20;12.90;;;2.83;;
5475;SDS011;2760;50.000;9.194;2023-08-21T17:38:48;5.47;;;2.33;;
5475;SDS011;2760;50.000;9.194;2023-08-21T17:41:16;14.53;;;2.63;;
5475;SDS011;2760;50.000;9.194;2023-08-21T17:43:46;3.93;;;2.50;;
5475;SDS011;2760;50.000;9.194;2023-08-21T17:46:13;9.07;;;2.67;;
5475;SDS011;2760;50.000;9.194;2023-08-21T17:48:52;4.43;;;2.20;;
5475;SDS011;2760;50.000;9.194;2023-08-21T17:52:09;4.03;;;2.57;;
5475;SDS011;2760;50.000;9.194;2023-08-21T17:54:52;5.97;;;1.90;;
5475;SDS011;2760;50.000;9.194;2023-08-21T17:57:37;6.97;;;6.27;;
5475;SDS011;2760;50.000;9.194;2023-08-21T18:00:06;4.93;;;3.10;;
5475;SDS011;2760;50.000;9.194;2023-08-21T18:02:35;4.40;;;2.83;;
5475;SDS011;2760;50.000;9.194;2023-08-21T18:05:02;2.33;;;2.13;;
5475;SDS011;2760;50.000;9.194;2023-08-21T18:07:35;2.67;;;2.30;;
5475;SDS011;2760;50.000;9.194;2023-08-21T18:10:02;2.60;;;2.40;;
5475;SDS011;2760;50.000;9.194;2023-08-21T18:12:33;5.60;;;2.80;;
5475;SDS011;2760;50.000;9.194;2023-08-21T18:15:01;4.70;;;2.93;;
5475;SDS011;2760;50.000;9.194;2023-08-21T18:17:29;7.13;;;3.03;;
5475;SDS011;2760;50.000;9.194;2023-08-21T18:19:56;5.63;;;3.17;;
5475;SDS011;2760;50.000;9.194;2023-08-21T18:22:24;4.30;;;3.03;;
5475;SDS011;2760;50.000;9.194;2023-08-21T18:24:52;2.93;;;2.70;;
5475;SDS011;2760;50.000;9.194;2023-08-21T18:27:20;3.60;;;3.30;;
5475;SDS011;2760;50.000;9.194;2023-08-21T18:29:47;6.37;;;3.77;;
5475;SDS011;2760;50.000;9.194;2023-08-21T18:32:15;4.27;;;3.23;;
5475;SDS011;2760;50.000;9.194;2023-08-21T18:38:31;3.63;;;3.10;;
5475;SDS011;2760;50.000;9.194;2023-08-21T18:41:03;9.70;;;4.30;;
5475;SDS011;2760;50.000;9.194;2023-08-21T18:43:31;4.90;;;4.47;;
5475;SDS011;2760;50.000;9.194;2023-08-21T18:45:58;5.17;;;4.13;;
5475;SDS011;2760;50.000;9.194;2023-08-21T18:48:25;6.80;;;3.97;;
5475;SDS011;2760;50.000;9.194;2023-08-21T18:50:52;5.53;;;4.10;;
5475;SDS011;2760;50.000;9.194;2023-08-21T18:53:26;4.70;;;4.20;;
5475;SDS011;2760;50.000;9.194;2023-08-21T18:55:53;5.97;;;3.67;;
5475;SDS011;2760;50.000;9.194;2023-08-21T18:58:21;8.23;;;4.17;;
5475;SDS011;2760;50.000;9.194;2023-08-21T19:00:49;6.00;;;3.63;;
5475;SDS011;2760;50.000;9.194;2023-08-21T19:03:19;7.10;;;3.93;;
5475;SDS011;2760;50.000;9.194;2023-08-21T19:05:47;4.00;;;3.60;;
5475;SDS011;2760;50.000;9.194;2023-08-21T19:08:17;8.00;;;4.00;;
5475;SDS011;2760;50.000;9.194;2023-08-21T19:10:46;4.13;;;3.23;;
5475;SDS011;2760;50.000;9.194;2023-08-21T19:13:14;10.20;;;3.93;;
5475;SDS011;2760;50.000;9.194;2023-08-21T19:15:42;5.07;;;3.90;;
5475;SDS011;2760;50.000;9.194;2023-08-21T19:18:13;4.30;;;3.57;;
5475;SDS011;2760;50.000;9.194;2023-08-21T19:20:40;4.90;;;3.40;;
5475;SDS011;2760;50.000;9.194;2023-08-21T19:23:07;4.80;;;3.87;;
5475;SDS011;2760;50.000;9.194;2023-08-21T19:25:35;8.97;;;3.53;;
5475;SDS011;2760;50.000;9.194;2023-08-21T19:28:08;5.37;;;3.83;;
5475;SDS011;2760;50.000;9.194;2023-08-21T19:30:43;5.03;;;3.90;;
5475;SDS011;2760;50.000;9.194;2023-08-21T19:33:18;5.70;;;3.40;;
5475;SDS011;2760;50.000;9.194;2023-08-21T19:35:49;3.40;;;3.10;;
5475;SDS011;2760;50.000;9.194;2023-08-21T19:38:22;5.27;;;3.67;;
5475;SDS011;2760;50.000;9.194;2023-08-21T19:41:44;10.60;;;5.83;;
5475;SDS011;2760;50.000;9.194;2023-08-21T19:44:13;12.30;;;3.90;;